Time;durP1;ratioP1;P1;durP2;ratioP2;P2;SDS_P1;SDS_P2;PMS_P1;PMS_P2;Temp;Humidity;BMP_temperature;BMP_pressure;BME280_temperature;BME280_humidity;BME280_pressure;Samples;Min_cycle;Max_cycle;Signal;HPM_P1;HPM_P2
2022/01/16 00:00:54;;;;;;;72.47;26.42;;;2.30;99.90;;;;;;5049910;28;20033;-68
2022/01/16 00:06:03;;;;;;;78.25;26.65;;;2.20;99.90;;;;;;5031083;28;20045;-67
2022/01/16 00:08:29;;;;;;;72.28;26.23;;;2.30;99.90;;;;;;5040477;28;20033;-68
2022/01/16 00:10:54;;;;;;;77.20;26.65;;;2.40;99.90;;;;;;5049332;28;20125;-67
2022/01/16 00:13:20;;;;;;;78.80;26.77;;;2.40;99.90;;;;;;5033976;28;20044;-67
2022/01/16 00:15:45;;;;;;;82.80;26.42;;;2.30;99.90;;;;;;5046371;28;20120;-67
2022/01/16 00:18:24;;;;;;;84.78;27.63;;;2.20;99.90;;;;;;5036620;28;20037;-68
2022/01/16 00:20:50;;;;;;;83.40;27.10;;;2.20;99.90;;;;;;5016324;28;20057;-68
2022/01/16 00:23:28;;;;;;;80.72;26.20;;;2.10;99.90;;;;;;5039205;28;20043;-67
2022/01/16 00:25:56;;;;;;;71.13;23.67;;;2.10;99.90;;;;;;5048574;28;20454;-67
2022/01/16 00:28:23;;;;;;;69.00;25.33;;;2.10;99.90;;;;;;5045691;28;20484;-68
2022/01/16 00:30:49;;;;;;;74.32;23.98;;;2.00;99.90;;;;;;5036657;28;20076;-70
2022/01/16 00:33:15;;;;;;;71.30;24.25;;;2.00;99.90;;;;;;5030193;28;20064;-68
2022/01/16 00:35:41;;;;;;;79.47;24.70;;;2.00;99.90;;;;;;5030124;28;20493;-67
2022/01/16 00:38:07;;;;;;;70.90;25.27;;;2.00;99.90;;;;;;5037612;28;20083;-68
2022/01/16 00:40:33;;;;;;;78.22;22.23;;;1.90;99.90;;;;;;5049646;28;20131;-67
2022/01/16 00:42:59;;;;;;;74.13;23.30;;;2.00;99.90;;;;;;5031334;28;20132;-67
2022/01/16 00:45:26;;;;;;;75.10;22.27;;;1.90;99.90;;;;;;5044523;28;20606;-68
2022/01/16 00:47:51;;;;;;;77.32;23.23;;;1.80;99.90;;;;;;5035091;28;20037;-67
2022/01/16 00:50:17;;;;;;;76.65;22.58;;;1.90;99.90;;;;;;5018446;28;20037;-68
2022/01/16 00:52:43;;;;;;;66.78;21.67;;;1.80;99.90;;;;;;5038733;28;20047;-67
2022/01/16 00:55:09;;;;;;;69.00;22.83;;;1.80;99.90;;;;;;5049126;28;20033;-68
2022/01/16 00:57:35;;;;;;;71.10;22.83;;;1.90;99.90;;;;;;5041339;28;20053;-70
2022/01/16 01:00:00;;;;;;;74.88;24.77;;;1.90;99.90;;;;;;5017263;28;20045;-67
2022/01/16 01:02:26;;;;;;;72.78;23.60;;;1.80;99.90;;;;;;5027019;28;20374;-67
2022/01/16 01:04:52;;;;;;;71.88;24.20;;;1.80;99.90;;;;;;5042568;28;20041;-68
2022/01/16 01:07:18;;;;;;;69.22;24.40;;;1.70;99.90;;;;;;5044164;28;20101;-67
2022/01/16 01:09:44;;;;;;;76.30;24.92;;;1.70;99.90;;;;;;5036865;28;20048;-67
2022/01/16 01:12:13;;;;;;;70.25;24.77;;;1.60;99.90;;;;;;5029089;28;20140;-69
2022/01/16 01:14:53;;;;;;;73.05;24.30;;;1.60;99.90;;;;;;5029406;28;20106;-68
2022/01/16 01:17:24;;;;;;;76.68;27.08;;;1.60;99.90;;;;;;5035192;28;20049;-67
2022/01/16 01:19:50;;;;;;;79.15;23.63;;;1.70;99.90;;;;;;5030700;28;20102;-66
2022/01/16 01:22:15;;;;;;;70.05;24.02;;;1.60;99.90;;;;;;5035780;28;20128;-67
2022/01/16 01:24:41;;;;;;;83.90;28.27;;;1.50;99.90;;;;;;5029342;28;20079;-68
2022/01/16 01:27:23;;;;;;;85.78;26.40;;;1.50;99.90;;;;;;5026544;28;20534;-67
2022/01/16 01:30:10;;;;;;;82.85;25.70;;;1.50;99.90;;;;;;5030983;28;20045;-68
2022/01/16 01:32:37;;;;;;;81.70;26.00;;;1.50;99.90;;;;;;5047355;28;20043;-69
2022/01/16 01:35:05;;;;;;;80.57;25.90;;;1.60;99.90;;;;;;5025400;28;20026;-69
2022/01/16 01:37:31;;;;;;;71.30;23.95;;;1.60;99.90;;;;;;5037416;28;20054;-68
2022/01/16 01:39:57;;;;;;;76.28;25.15;;;1.70;99.90;;;;;;5035913;28;20135;-68
2022/01/16 01:42:30;;;;;;;72.07;25.38;;;1.70;99.90;;;;;;5035545;28;20049;-67
2022/01/16 01:53:08;;;;;;;69.32;24.00;;;1.70;99.90;;;;;;5033279;28;20124;-67
2022/01/16 01:55:34;;;;;;;66.38;23.42;;;1.70;99.90;;;;;;5028042;28;20116;-69
2022/01/16 01:58:00;;;;;;;64.38;22.45;;;1.60;99.90;;;;;;5030433;28;20041;-70
2022/01/16 02:00:25;;;;;;;63.20;21.92;;;1.60;99.90;;;;;;5028139;28;20110;-68
2022/01/16 02:05:31;;;;;;;65.75;23.50;;;1.60;99.90;;;;;;5030448;28;20187;-67
2022/01/16 02:07:57;;;;;;;66.40;22.83;;;1.60;99.90;;;;;;5026588;28;20049;-67
2022/01/16 02:10:24;;;;;;;66.07;22.40;;;1.60;99.90;;;;;;5021332;28;20037;-68
2022/01/16 02:12:57;;;;;;;67.80;22.35;;;1.60;99.90;;;;;;5043368;28;20069;-70
2022/01/16 02:27:56;;;;;;;71.38;23.63;;;1.60;99.90;;;;;;5044459;28;20052;-67
2022/01/16 02:34:45;;;;;;;85.20;26.98;;;1.50;99.90;;;;;;5047152;28;20048;-67
2022/01/16 02:37:13;;;;;;;89.10;26.85;;;1.60;99.90;;;;;;5045875;28;20365;-67
2022/01/16 02:39:48;;;;;;;88.18;26.88;;;1.60;99.90;;;;;;5035951;28;20049;-67
2022/01/16 02:42:14;;;;;;;82.93;25.65;;;1.60;99.90;;;;;;5037590;28;20047;-68
2022/01/16 02:44:46;;;;;;;88.75;27.48;;;1.60;99.90;;;;;;5035808;28;20041;-68
2022/01/16 02:47:14;;;;;;;88.72;27.10;;;1.60;99.90;;;;;;5038565;28;20471;-69
2022/01/16 02:49:41;;;;;;;94.78;28.48;;;1.60;99.90;;;;;;5016370;28;20052;-68
2022/01/16 02:52:09;;;;;;;96.00;28.10;;;1.50;99.90;;;;;;5029791;28;20034;-67
2022/01/16 02:54:38;;;;;;;111.45;27.92;;;1.50;99.90;;;;;;5045912;28;20090;-69
2022/01/16 02:57:06;;;;;;;99.97;30.85;;;1.50;99.90;;;;;;5041265;28;20037;-68
2022/01/16 02:59:33;;;;;;;113.50;32.60;;;1.50;99.90;;;;;;5032423;28;20037;-67
2022/01/16 03:02:00;;;;;;;109.22;31.30;;;1.50;99.90;;;;;;5044211;28;20566;-67
2022/01/16 03:04:28;;;;;;;101.32;28.33;;;1.60;99.90;;;;;;5044755;28;20097;-68
2022/01/16 03:06:54;;;;;;;115.47;32.47;;;1.60;99.90;;;;;;5041707;28;20042;-67
2022/01/16 03:09:21;;;;;;;116.43;32.63;;;1.60;99.90;;;;;;5034529;28;20041;-68
2022/01/16 03:11:49;;;;;;;106.82;30.27;;;1.50;99.90;;;;;;5043196;28;20602;-68
2022/01/16 03:14:17;;;;;;;116.18;31.92;;;1.50;99.90;;;;;;5044043;28;20563;-67
2022/01/16 03:16:47;;;;;;;109.60;33.20;;;1.60;99.90;;;;;;5037947;28;20128;-67
2022/01/16 03:22:02;;;;;;;121.90;32.50;;;1.50;99.90;;;;;;5042454;28;20040;-67
2022/01/16 03:24:29;;;;;;;121.53;32.85;;;1.60;99.90;;;;;;5028128;28;20536;-69
2022/01/16 03:26:56;;;;;;;108.05;30.08;;;1.70;99.90;;;;;;5031323;28;20160;-68
2022/01/16 03:29:24;;;;;;;129.48;31.50;;;1.60;99.90;;;;;;5029565;28;20397;-67
2022/01/16 03:31:50;;;;;;;116.72;32.72;;;1.60;99.90;;;;;;5031073;28;20144;-67
2022/01/16 03:34:15;;;;;;;119.15;31.08;;;1.70;99.90;;;;;;5030815;28;20033;-67
2022/01/16 03:36:41;;;;;;;123.07;32.75;;;1.60;99.90;;;;;;5044227;28;20370;-68
2022/01/16 03:39:07;;;;;;;121.50;34.03;;;1.60;99.90;;;;;;5033469;28;20095;-67
2022/01/16 03:41:34;;;;;;;141.48;34.97;;;1.60;99.90;;;;;;5044028;28;20060;-68
2022/01/16 03:44:04;;;;;;;138.00;32.47;;;1.60;99.90;;;;;;5019532;28;20028;-68
2022/01/16 03:46:38;;;;;;;130.82;34.78;;;1.60;99.90;;;;;;5035497;28;20061;-69
2022/01/16 03:49:09;;;;;;;117.57;33.20;;;1.60;99.90;;;;;;5014968;28;20072;-67
2022/01/16 03:51:37;;;;;;;115.85;31.90;;;1.60;99.90;;;;;;5031537;28;20116;-67
2022/01/16 03:54:05;;;;;;;128.63;33.15;;;1.60;99.90;;;;;;5029861;28;20047;-69
2022/01/16 03:56:31;;;;;;;115.75;30.73;;;1.60;99.90;;;;;;5037510;28;20076;-68
2022/01/16 03:58:56;;;;;;;129.52;33.55;;;1.70;99.90;;;;;;5029293;28;20048;-67
2022/01/16 04:01:24;;;;;;;118.45;32.83;;;1.60;99.90;;;;;;5039484;28;20135;-67
2022/01/16 04:03:50;;;;;;;121.13;33.28;;;1.60;99.90;;;;;;5030226;28;20080;-67
2022/01/16 04:06:16;;;;;;;130.55;33.15;;;1.70;99.90;;;;;;5029718;28;20041;-67
2022/01/16 04:08:42;;;;;;;123.80;32.22;;;1.70;99.90;;;;;;5040984;28;20428;-68
2022/01/16 04:11:08;;;;;;;132.88;34.15;;;1.70;99.90;;;;;;5029654;28;20046;-67
2022/01/16 04:13:34;;;;;;;123.28;32.65;;;1.70;99.90;;;;;;5028516;28;20446;-67
2022/01/16 04:15:59;;;;;;;117.05;32.65;;;1.80;99.90;;;;;;5041696;28;20033;-67
2022/01/16 04:18:25;;;;;;;147.68;34.22;;;1.70;99.90;;;;;;5030235;28;20053;-68
2022/01/16 04:20:51;;;;;;;130.75;33.97;;;1.80;99.90;;;;;;5029818;28;20057;-68
2022/01/16 04:23:16;;;;;;;131.20;32.90;;;1.80;99.90;;;;;;5028308;28;20428;-66
2022/01/16 04:25:42;;;;;;;132.85;33.20;;;1.80;99.90;;;;;;5032298;28;20530;-67
2022/01/16 04:28:07;;;;;;;122.32;31.20;;;1.80;99.90;;;;;;5046641;28;20112;-67
2022/01/16 04:30:33;;;;;;;134.38;34.20;;;1.90;99.90;;;;;;5041366;28;20130;-67
2022/01/16 04:32:59;;;;;;;134.40;33.42;;;1.90;99.90;;;;;;5038969;28;20045;-67
2022/01/16 04:35:25;;;;;;;122.30;33.30;;;1.90;99.90;;;;;;5048519;28;20579;-69
2022/01/16 04:37:50;;;;;;;141.52;33.63;;;1.90;99.90;;;;;;5015402;28;20099;-67
2022/01/16 04:40:16;;;;;;;134.50;32.60;;;1.90;99.90;;;;;;5049030;28;20121;-67
2022/01/16 04:45:27;;;;;;;125.68;32.70;;;2.00;99.90;;;;;;5029827;28;20125;-68
2022/01/16 04:47:53;;;;;;;141.05;36.00;;;2.00;99.90;;;;;;5012037;28;20438;-67
2022/01/16 04:50:21;;;;;;;146.88;35.40;;;2.00;99.90;;;;;;5031947;28;20124;-68
2022/01/16 04:52:48;;;;;;;151.73;35.28;;;2.10;99.90;;;;;;5047472;28;20056;-68
2022/01/16 04:55:15;;;;;;;137.88;34.63;;;2.10;99.90;;;;;;5048157;28;20037;-67
2022/01/16 04:57:41;;;;;;;136.18;33.75;;;2.10;99.90;;;;;;5024072;28;20052;-69
2022/01/16 05:00:11;;;;;;;141.02;33.63;;;2.10;99.90;;;;;;5029572;28;20037;-68
2022/01/16 05:02:37;;;;;;;136.98;35.25;;;2.10;99.90;;;;;;5041610;28;20450;-67
2022/01/16 05:05:03;;;;;;;142.65;34.95;;;2.20;99.90;;;;;;5045057;28;20115;-67
2022/01/16 05:07:28;;;;;;;143.93;36.40;;;2.20;99.90;;;;;;5027134;28;20159;-70
2022/01/16 05:09:54;;;;;;;127.55;34.40;;;2.20;99.90;;;;;;5044703;28;20064;-68
2022/01/16 05:12:28;;;;;;;142.93;35.90;;;2.30;99.90;;;;;;5028954;28;20042;-69
2022/01/16 05:17:38;;;;;;;145.25;35.83;;;2.30;99.90;;;;;;5029783;28;20085;-68
2022/01/16 05:20:04;;;;;;;150.60;36.58;;;2.30;99.90;;;;;;5037954;28;20422;-68
2022/01/16 05:22:29;;;;;;;152.38;36.40;;;2.30;99.90;;;;;;5034319;28;20339;-68
2022/01/16 05:24:55;;;;;;;147.88;37.65;;;2.30;99.90;;;;;;5028563;28;20082;-67
2022/01/16 05:27:20;;;;;;;128.30;33.58;;;2.30;99.90;;;;;;5036299;28;20128;-68
2022/01/16 05:29:46;;;;;;;140.98;35.55;;;2.30;99.90;;;;;;5038455;28;20140;-68
2022/01/16 05:32:15;;;;;;;151.48;36.45;;;2.40;99.90;;;;;;5035151;28;20049;-67
2022/01/16 05:34:41;;;;;;;155.18;37.08;;;2.40;99.90;;;;;;5034277;28;20408;-67
2022/01/16 05:37:07;;;;;;;139.95;35.75;;;2.40;99.90;;;;;;5038476;28;20041;-67
2022/01/16 05:39:32;;;;;;;155.98;37.92;;;2.40;99.90;;;;;;5032824;28;20033;-68
2022/01/16 05:41:58;;;;;;;159.45;37.75;;;2.40;99.90;;;;;;5035335;28;20065;-68
2022/01/16 05:44:23;;;;;;;152.27;39.53;;;2.50;99.90;;;;;;5040400;28;20044;-69
2022/01/16 05:46:49;;;;;;;149.13;38.08;;;2.40;99.90;;;;;;5044728;28;20091;-67
2022/01/16 05:49:14;;;;;;;145.68;36.63;;;2.50;99.90;;;;;;5027040;28;20037;-67
2022/01/16 05:51:40;;;;;;;133.10;35.78;;;2.50;99.90;;;;;;5033852;28;20037;-68
2022/01/16 05:54:05;;;;;;;138.13;36.33;;;2.60;99.90;;;;;;5047967;28;20492;-69
2022/01/16 05:56:31;;;;;;;153.25;37.58;;;2.60;99.90;;;;;;5041322;28;20585;-68
2022/01/16 05:58:56;;;;;;;137.48;36.85;;;2.60;99.90;;;;;;5042106;28;20044;-67
2022/01/16 06:01:22;;;;;;;149.80;38.10;;;2.60;99.90;;;;;;5032271;28;20044;-68
2022/01/16 06:03:48;;;;;;;136.50;35.25;;;2.60;99.90;;;;;;5028460;28;20083;-69
2022/01/16 06:06:13;;;;;;;126.40;35.88;;;2.60;99.90;;;;;;5026647;28;20203;-67
2022/01/16 06:08:39;;;;;;;134.57;36.78;;;2.60;99.90;;;;;;5014473;28;20723;-67
2022/01/16 06:11:04;;;;;;;136.90;36.00;;;2.70;99.90;;;;;;5038939;28;20366;-67
2022/01/16 06:13:30;;;;;;;140.38;37.20;;;2.70;99.90;;;;;;5030477;28;20041;-68
2022/01/16 06:15:55;;;;;;;131.20;37.13;;;2.70;99.90;;;;;;5030250;28;20171;-68
2022/01/16 06:18:21;;;;;;;140.57;35.90;;;2.70;99.90;;;;;;5017063;28;20044;-69
2022/01/16 06:20:47;;;;;;;125.03;34.92;;;2.70;99.90;;;;;;5013728;28;20082;-68
2022/01/16 06:23:14;;;;;;;130.68;37.53;;;2.70;99.90;;;;;;5033327;28;20112;-68
2022/01/16 06:25:40;;;;;;;131.77;35.58;;;2.70;99.90;;;;;;5012251;28;20199;-68
2022/01/16 06:28:05;;;;;;;140.85;37.28;;;2.70;99.90;;;;;;5033737;28;20120;-68
2022/01/16 06:30:31;;;;;;;132.05;34.33;;;2.70;99.90;;;;;;5038089;28;20033;-68
2022/01/16 06:32:57;;;;;;;135.18;39.38;;;2.70;99.90;;;;;;5031707;28;20088;-66
2022/01/16 06:35:22;;;;;;;148.48;38.80;;;2.80;99.90;;;;;;5028257;28;20113;-68
2022/01/16 06:37:48;;;;;;;143.18;38.92;;;2.80;99.90;;;;;;5042015;28;20033;-68
2022/01/16 06:40:14;;;;;;;139.02;37.63;;;2.80;99.90;;;;;;5028753;28;20140;-68
2022/01/16 06:42:41;;;;;;;134.70;36.38;;;2.80;99.90;;;;;;5030542;28;20030;-67
2022/01/16 06:45:08;;;;;;;124.30;36.92;;;2.80;99.90;;;;;;5033479;28;20500;-68
2022/01/16 06:47:34;;;;;;;136.75;37.13;;;2.80;99.90;;;;;;5034299;28;20037;-70
2022/01/16 06:49:59;;;;;;;143.65;38.97;;;2.80;99.90;;;;;;5042294;28;20041;-66
2022/01/16 06:52:25;;;;;;;139.15;36.72;;;2.80;99.90;;;;;;5031410;28;20111;-67
2022/01/16 06:54:50;;;;;;;134.25;35.90;;;2.90;99.90;;;;;;5035891;28;20045;-68
2022/01/16 06:57:16;;;;;;;135.85;36.45;;;2.90;99.90;;;;;;5034205;28;20112;-68
2022/01/16 06:59:45;;;;;;;130.82;39.08;;;2.90;99.90;;;;;;5019497;28;20069;-68
2022/01/16 07:02:12;;;;;;;150.27;37.50;;;2.90;99.90;;;;;;5029985;28;20548;-68
2022/01/16 07:04:37;;;;;;;141.90;37.85;;;2.90;99.90;;;;;;5036525;28;20403;-68
2022/01/16 07:07:03;;;;;;;139.73;37.45;;;2.90;99.90;;;;;;5037530;28;20216;-68
2022/01/16 07:09:28;;;;;;;146.35;38.85;;;2.90;99.90;;;;;;5028195;28;20354;-68
2022/01/16 07:11:54;;;;;;;147.05;39.35;;;3.00;99.90;;;;;;5030361;28;20034;-67
2022/01/16 07:14:20;;;;;;;150.40;39.47;;;3.00;99.90;;;;;;5036095;28;20061;-68
2022/01/16 07:16:45;;;;;;;152.85;38.00;;;3.00;99.90;;;;;;5029797;28;20051;-68
2022/01/16 07:19:11;;;;;;;141.75;37.67;;;3.00;99.90;;;;;;5030713;28;20036;-68
2022/01/16 07:21:36;;;;;;;134.18;37.72;;;3.10;99.90;;;;;;5040558;28;20061;-69
2022/01/16 07:24:02;;;;;;;146.93;41.90;;;3.10;99.90;;;;;;5042147;28;20121;-68
2022/01/16 07:26:28;;;;;;;137.27;37.92;;;3.10;99.90;;;;;;5031028;28;20555;-68
2022/01/16 07:28:53;;;;;;;145.48;39.65;;;3.10;99.90;;;;;;5048717;28;20044;-68
2022/01/16 07:31:19;;;;;;;157.98;40.33;;;3.20;99.90;;;;;;5038240;28;20041;-68
2022/01/16 07:33:44;;;;;;;150.05;41.40;;;3.20;99.90;;;;;;5040355;28;20043;-67
2022/01/16 07:36:10;;;;;;;140.00;38.28;;;3.20;99.90;;;;;;5036122;28;20522;-68
2022/01/16 07:38:36;;;;;;;146.30;39.60;;;3.20;99.90;;;;;;5025310;28;20444;-68
2022/01/16 07:41:01;;;;;;;145.68;39.55;;;3.20;99.90;;;;;;5043198;28;20071;-68
2022/01/16 07:43:27;;;;;;;143.00;39.35;;;3.30;99.90;;;;;;5031584;28;20076;-68
2022/01/16 07:45:52;;;;;;;154.80;40.20;;;3.30;99.90;;;;;;5031500;28;20068;-67
2022/01/16 07:48:18;;;;;;;150.63;41.17;;;3.40;99.90;;;;;;5030149;28;20037;-67
2022/01/16 07:50:44;;;;;;;146.85;39.40;;;3.30;99.90;;;;;;5016966;28;20037;-67
2022/01/16 07:53:09;;;;;;;152.07;40.17;;;3.40;99.90;;;;;;5045213;28;20039;-67
2022/01/16 07:55:35;;;;;;;149.18;41.08;;;3.40;99.90;;;;;;5032901;28;20112;-69
2022/01/16 07:58:01;;;;;;;139.68;38.78;;;3.40;99.90;;;;;;5031855;28;20417;-68
2022/01/16 08:00:27;;;;;;;134.43;39.10;;;3.50;99.90;;;;;;5037643;28;20038;-67
2022/01/16 08:02:53;;;;;;;140.63;37.35;;;3.50;99.90;;;;;;5029007;28;20041;-67
2022/01/16 08:05:20;;;;;;;144.98;41.97;;;3.50;99.90;;;;;;5030249;28;20053;-68
2022/01/16 08:07:46;;;;;;;143.18;38.15;;;3.50;99.90;;;;;;5029404;28;20084;-67
2022/01/16 08:10:13;;;;;;;137.82;38.45;;;3.60;99.90;;;;;;5027782;28;20038;-68
2022/01/16 08:12:39;;;;;;;149.55;39.97;;;3.60;99.90;;;;;;5020350;28;20063;-68
2022/01/16 08:15:06;;;;;;;143.40;40.38;;;3.60;99.90;;;;;;5022852;28;20147;-68
2022/01/16 08:17:32;;;;;;;144.18;38.10;;;3.60;99.90;;;;;;5020211;28;20045;-69
2022/01/16 08:19:58;;;;;;;140.98;38.15;;;3.70;99.90;;;;;;5030269;28;20422;-68
2022/01/16 08:22:23;;;;;;;138.68;38.60;;;3.70;99.90;;;;;;5032573;28;20445;-68
2022/01/16 08:24:49;;;;;;;137.40;40.00;;;3.70;99.90;;;;;;5032421;28;20037;-69
2022/01/16 08:27:15;;;;;;;145.38;41.05;;;3.80;99.90;;;;;;5035427;28;20446;-68
2022/01/16 08:29:42;;;;;;;133.27;39.50;;;3.80;99.90;;;;;;5019022;28;20053;-68
2022/01/16 08:32:08;;;;;;;134.95;39.28;;;3.90;99.90;;;;;;5041653;28;20121;-68
2022/01/16 08:34:33;;;;;;;129.20;38.60;;;4.00;99.90;;;;;;5022569;28;20116;-68
2022/01/16 08:36:59;;;;;;;137.45;40.35;;;4.00;99.90;;;;;;5041441;28;20167;-69
2022/01/16 08:39:25;;;;;;;124.30;39.28;;;4.00;99.90;;;;;;5028185;28;20056;-69
2022/01/16 08:41:50;;;;;;;131.80;40.03;;;4.10;99.90;;;;;;5034196;28;20047;-68
2022/01/16 08:44:16;;;;;;;125.18;39.30;;;4.10;99.90;;;;;;5027782;28;20047;-68
2022/01/16 08:46:41;;;;;;;129.00;38.88;;;4.20;99.90;;;;;;5031670;28;20044;-69
2022/01/16 08:49:07;;;;;;;135.63;40.95;;;4.20;99.90;;;;;;5035601;28;20052;-68
2022/01/16 08:51:33;;;;;;;125.95;38.10;;;4.20;99.90;;;;;;5044591;28;20136;-68
2022/01/16 08:53:58;;;;;;;128.60;38.72;;;4.20;99.90;;;;;;5041719;28;20029;-68
2022/01/16 08:56:24;;;;;;;121.28;36.90;;;4.30;99.90;;;;;;5046497;28;20473;-68
2022/01/16 08:58:49;;;;;;;124.32;39.08;;;4.30;99.90;;;;;;5029047;28;20038;-68
2022/01/16 09:01:15;;;;;;;118.93;37.83;;;4.30;99.90;;;;;;5012376;28;20049;-68
2022/01/16 09:03:41;;;;;;;127.82;37.13;;;4.30;99.90;;;;;;5030143;28;20388;-69
2022/01/16 09:06:07;;;;;;;112.82;39.72;;;4.40;99.90;;;;;;5035090;28;20033;-67
2022/01/16 09:08:32;;;;;;;119.88;40.65;;;4.40;99.90;;;;;;5047882;28;20068;-69
2022/01/16 09:10:58;;;;;;;111.90;38.70;;;4.50;99.90;;;;;;5022907;28;20512;-68
2022/01/16 09:13:24;;;;;;;108.30;36.50;;;4.50;99.90;;;;;;5030792;28;20033;-69
2022/01/16 09:15:50;;;;;;;110.03;36.55;;;4.50;99.90;;;;;;5034886;28;20064;-69
2022/01/16 09:18:18;;;;;;;113.78;36.13;;;4.50;99.90;;;;;;5011566;28;20099;-68
2022/01/16 09:20:45;;;;;;;110.97;37.35;;;4.60;99.90;;;;;;5043523;28;20057;-68
2022/01/16 09:23:12;;;;;;;113.25;38.65;;;4.60;99.90;;;;;;5023234;28;20079;-67
2022/01/16 09:25:38;;;;;;;104.07;36.95;;;4.70;99.90;;;;;;5040527;28;20128;-68
2022/01/16 09:28:04;;;;;;;101.80;36.90;;;4.70;99.90;;;;;;5027106;28;20461;-68
2022/01/16 09:30:31;;;;;;;110.57;36.22;;;4.80;99.90;;;;;;5027344;28;20073;-68
2022/01/16 09:32:57;;;;;;;99.90;36.13;;;4.80;99.90;;;;;;5044406;28;20085;-68
2022/01/16 09:35:23;;;;;;;99.53;35.40;;;4.90;99.90;;;;;;5045865;28;20029;-69
2022/01/16 09:37:49;;;;;;;89.40;33.78;;;4.90;99.90;;;;;;5020065;28;20040;-68
2022/01/16 09:40:18;;;;;;;95.97;35.50;;;5.00;99.90;;;;;;5042193;28;20033;-68
2022/01/16 09:42:44;;;;;;;93.30;33.78;;;5.00;99.90;;;;;;5028498;28;20045;-68
2022/01/16 09:45:13;;;;;;;91.82;33.83;;;5.10;99.90;;;;;;5043424;28;20041;-69
2022/01/16 09:47:39;;;;;;;86.80;33.72;;;5.10;99.90;;;;;;5046954;28;20037;-69
2022/01/16 09:50:08;;;;;;;93.45;34.75;;;5.20;99.90;;;;;;5034206;28;20396;-69
2022/01/16 09:52:38;;;;;;;90.50;33.53;;;5.20;99.90;;;;;;5031718;28;20069;-68
2022/01/16 09:55:05;;;;;;;77.97;32.28;;;5.30;99.90;;;;;;5040113;28;20377;-67
2022/01/16 09:57:31;;;;;;;84.65;32.15;;;5.30;99.90;;;;;;5035285;28;20162;-69
2022/01/16 09:59:57;;;;;;;81.43;32.67;;;5.40;99.90;;;;;;5036402;28;20120;-68
2022/01/16 10:02:23;;;;;;;83.07;33.53;;;5.40;99.90;;;;;;5035125;28;20140;-68
2022/01/16 10:04:49;;;;;;;81.95;32.25;;;5.40;99.90;;;;;;5037564;28;20143;-67
2022/01/16 10:07:17;;;;;;;76.50;32.83;;;5.40;99.90;;;;;;5026031;28;20186;-69
2022/01/16 10:10:08;;;;;;;83.72;32.00;;;5.50;99.90;;;;;;5017747;28;20128;-67
2022/01/16 10:12:34;;;;;;;76.90;30.95;;;5.50;99.90;;;;;;5011391;28;20053;-67
2022/01/16 10:15:22;;;;;;;76.85;30.00;;;5.50;99.90;;;;;;5016760;28;20041;-68
2022/01/16 10:17:51;;;;;;;81.00;30.60;;;5.60;99.90;;;;;;5027609;28;20044;-67
2022/01/16 10:20:17;;;;;;;69.57;29.23;;;5.60;99.90;;;;;;5033068;28;20080;-68
2022/01/16 10:22:54;;;;;;;73.28;28.70;;;5.60;99.90;;;;;;5032850;28;20425;-67
2022/01/16 10:25:41;;;;;;;67.32;28.65;;;5.70;99.90;;;;;;5014086;28;20079;-68
2022/01/16 10:28:21;;;;;;;63.15;27.83;;;5.70;99.90;;;;;;5030519;28;20053;-67
2022/01/16 10:30:50;;;;;;;64.18;29.20;;;5.70;99.90;;;;;;5023280;28;20051;-68
2022/01/16 10:33:19;;;;;;;72.00;28.10;;;5.80;99.90;;;;;;5034970;28;20122;-68
2022/01/16 10:35:47;;;;;;;67.85;29.15;;;5.80;99.90;;;;;;5034513;28;20033;-68
2022/01/16 10:38:18;;;;;;;72.60;29.33;;;5.80;99.90;;;;;;5034077;28;20044;-68
2022/01/16 10:40:50;;;;;;;66.65;27.42;;;5.80;99.90;;;;;;5035978;28;20037;-67
2022/01/16 10:43:21;;;;;;;62.80;27.00;;;5.90;99.90;;;;;;5033958;28;20036;-69
2022/01/16 10:45:51;;;;;;;66.45;27.08;;;5.90;99.90;;;;;;5034037;28;20132;-68
2022/01/16 10:48:22;;;;;;;58.70;26.27;;;5.90;99.90;;;;;;5041802;28;20449;-69
2022/01/16 10:50:48;;;;;;;61.92;25.65;;;5.90;99.90;;;;;;5041517;28;20065;-68
2022/01/16 10:53:15;;;;;;;58.40;25.73;;;5.90;99.90;;;;;;5021598;28;20120;-71
2022/01/16 10:55:51;;;;;;;58.28;26.52;;;6.00;99.90;;;;;;5046899;28;20149;-67
2022/01/16 10:58:23;;;;;;;58.88;25.17;;;6.00;99.90;;;;;;5039026;28;20128;-70
2022/01/16 11:01:00;;;;;;;58.90;25.75;;;6.00;99.90;;;;;;5040045;28;20075;-69
2022/01/16 11:03:28;;;;;;;55.80;23.00;;;6.00;99.90;;;;;;5053088;28;20082;-70
2022/01/16 11:05:55;;;;;;;57.75;25.33;;;6.00;99.90;;;;;;5038771;28;20069;-68
2022/01/16 11:08:25;;;;;;;59.95;23.98;;;6.00;99.90;;;;;;5046735;28;20065;-68
2022/01/16 11:10:54;;;;;;;61.75;24.85;;;6.00;99.90;;;;;;5045302;28;20420;-68
2022/01/16 11:13:21;;;;;;;54.15;25.70;;;6.00;99.90;;;;;;5033652;28;20044;-69
2022/01/16 11:15:49;;;;;;;51.67;22.10;;;6.00;99.90;;;;;;5052406;28;20048;-67
2022/01/16 11:18:16;;;;;;;56.58;22.98;;;6.00;99.90;;;;;;5044506;28;20037;-68
2022/01/16 11:20:52;;;;;;;50.60;22.33;;;6.00;99.90;;;;;;5048894;28;20057;-68
2022/01/16 11:26:02;;;;;;;57.13;22.88;;;6.00;99.90;;;;;;5031643;28;20057;-67
2022/01/16 11:28:28;;;;;;;48.53;21.02;;;6.00;99.90;;;;;;5024725;28;20040;-68
2022/01/16 11:30:56;;;;;;;47.42;18.65;;;6.00;99.90;;;;;;5036633;28;20092;-67
2022/01/16 11:33:24;;;;;;;46.95;20.50;;;6.00;99.90;;;;;;5046820;28;20114;-68
2022/01/16 11:35:59;;;;;;;41.55;19.98;;;6.10;99.90;;;;;;5030654;28;20550;-67
2022/01/16 11:38:37;;;;;;;41.65;18.73;;;6.00;99.90;;;;;;5045316;28;20038;-69
2022/01/16 11:41:15;;;;;;;35.60;17.92;;;6.00;99.90;;;;;;5045989;28;20119;-68
2022/01/16 11:43:48;;;;;;;46.58;19.25;;;6.10;99.90;;;;;;5036819;28;20053;-68
2022/01/16 11:46:17;;;;;;;39.55;18.23;;;6.00;99.90;;;;;;5049894;28;20119;-69
2022/01/16 11:48:56;;;;;;;41.60;18.10;;;6.00;99.90;;;;;;5040791;28;20493;-68
2022/01/16 11:51:37;;;;;;;38.00;18.05;;;6.00;99.90;;;;;;5030794;28;20454;-68
2022/01/16 11:54:25;;;;;;;38.80;17.25;;;6.10;99.90;;;;;;5051027;28;20073;-70
2022/01/16 11:56:58;;;;;;;36.63;16.83;;;6.10;99.90;;;;;;5036024;28;20372;-69
2022/01/16 11:59:39;;;;;;;36.08;15.25;;;6.10;99.90;;;;;;5030437;28;20144;-68
2022/01/16 12:02:07;;;;;;;31.70;15.02;;;6.10;99.90;;;;;;5013947;28;20117;-67
2022/01/16 12:04:33;;;;;;;31.15;13.88;;;6.10;99.90;;;;;;5033879;28;20423;-68
2022/01/16 12:07:03;;;;;;;28.25;14.20;;;6.20;99.90;;;;;;5038732;28;20045;-70
2022/01/16 12:09:39;;;;;;;32.55;13.88;;;6.20;99.90;;;;;;5032932;28;20044;-68
2022/01/16 12:12:14;;;;;;;28.00;13.13;;;6.20;99.90;;;;;;5020976;28;20057;-69
2022/01/16 12:14:59;;;;;;;31.17;12.88;;;6.20;99.90;;;;;;5031587;28;20065;-69
2022/01/16 12:17:42;;;;;;;25.00;11.65;;;6.20;99.90;;;;;;5035845;28;20064;-69
2022/01/16 12:20:14;;;;;;;24.77;12.20;;;6.30;99.90;;;;;;5031761;28;20144;-67
2022/01/16 12:23:05;;;;;;;24.13;11.75;;;6.30;99.90;;;;;;5035003;28;20052;-67
2022/01/16 12:25:54;;;;;;;24.95;12.73;;;6.30;99.90;;;;;;5032103;28;20042;-70
2022/01/16 12:28:23;;;;;;;26.52;11.30;;;6.30;99.90;;;;;;5046450;28;20529;-68
2022/01/16 12:30:49;;;;;;;31.48;13.25;;;6.40;99.90;;;;;;5032510;28;20044;-68
2022/01/16 12:33:14;;;;;;;29.85;13.00;;;6.30;99.90;;;;;;5029305;28;20453;-68
2022/01/16 12:35:52;;;;;;;28.15;12.80;;;6.30;99.90;;;;;;5028458;28;20041;-69
2022/01/16 12:38:23;;;;;;;27.83;12.52;;;6.30;99.90;;;;;;5046667;28;20048;-69
2022/01/16 12:41:01;;;;;;;24.00;11.85;;;6.40;99.90;;;;;;5041304;28;20060;-68
2022/01/16 12:43:32;;;;;;;25.33;12.20;;;6.40;99.90;;;;;;5047833;28;20076;-71
2022/01/16 12:46:03;;;;;;;28.73;13.48;;;6.40;99.90;;;;;;5014272;28;20037;-67
2022/01/16 12:48:30;;;;;;;27.77;13.07;;;6.40;99.90;;;;;;5048635;28;20040;-68
2022/01/16 12:51:00;;;;;;;30.08;13.07;;;6.40;99.90;;;;;;5040867;28;20381;-67
2022/01/16 12:53:40;;;;;;;23.27;11.50;;;6.40;99.90;;;;;;5036487;28;20035;-68
2022/01/16 12:56:27;;;;;;;30.90;11.80;;;6.40;99.90;;;;;;5035299;28;20045;-69
2022/01/16 12:59:11;;;;;;;27.30;12.25;;;6.40;99.90;;;;;;5030619;28;20041;-68
2022/01/16 13:01:51;;;;;;;21.77;10.90;;;6.40;99.90;;;;;;5039311;28;20056;-68
2022/01/16 13:04:37;;;;;;;27.85;10.98;;;6.40;99.90;;;;;;5044204;28;20337;-67
2022/01/16 13:07:10;;;;;;;19.63;10.63;;;6.40;99.90;;;;;;5038339;28;20126;-68
2022/01/16 13:09:35;;;;;;;21.15;10.02;;;6.40;99.90;;;;;;5044069;28;20128;-68
2022/01/16 13:12:04;;;;;;;21.42;9.63;;;6.50;99.90;;;;;;5041352;28;20136;-69
2022/01/16 13:14:35;;;;;;;20.33;9.77;;;6.50;99.90;;;;;;5042981;28;20044;-68
2022/01/16 13:17:04;;;;;;;24.85;9.30;;;6.50;99.90;;;;;;5028359;28;20087;-68